Time;durP1;ratioP1;P1;durP2;ratioP2;P2;SDS_P1;SDS_P2;PMS_P1;PMS_P2;Temp;Humidity;BMP_temperature;BMP_pressure;BME280_temperature;BME280_humidity;BME280_pressure;Samples;Min_cycle;Max_cycle;Signal;HPM_P1;HPM_P2
2022/03/07 00:00:52;;;;;;;;;;;;;;;-4.31;93.17;102826.06;2071343;28;44552;-62
2022/03/07 00:01:54;;;;;;;;;;;;;;;-4.31;93.43;102832.19;2064850;28;19926;-62
2022/03/07 00:02:55;;;;;;;;;;;;;;;-4.29;93.81;102829.69;2064066;28;43269;-62
2022/03/07 00:03:57;;;;;;;;;;;;;;;-4.27;93.93;102829.03;2063735;28;44605;-62
2022/03/07 00:04:59;;;;;;;;;;;;;;;-4.30;93.55;102828.81;2064062;28;44412;-62
2022/03/07 00:06:00;;;;;;;;;;;;;;;-4.30;93.30;102836.66;2063909;28;43905;-62
2022/03/07 00:07:02;;;;;;;;;;;;;;;-4.31;93.40;102834.81;2064949;28;20337;-62
2022/03/07 00:08:08;;;;;;;;;;;;;;;-4.33;93.11;102831.19;2064341;28;42714;-62
2022/03/07 00:09:29;;;;;;;;;;;;;;;-4.34;94.23;102824.19;2065159;28;19973;-61
2022/03/07 00:10:36;;;;;;;;;;;;;;;-4.29;94.37;102833.25;2064242;28;44781;-61
2022/03/07 00:11:37;;;;;;;;;;;;;;;-4.20;93.62;102829.41;2064566;28;19934;-61
2022/03/07 00:12:39;;;;;;;;;;;;;;;-4.16;95.05;102828.81;2071573;28;46515;-62
2022/03/07 00:13:40;;;;;;;;;;;;;;;-4.11;94.84;102823.13;2071579;28;43120;-62
2022/03/07 00:14:44;;;;;;;;;;;;;;;-4.05;95.16;102831.38;2064943;28;20008;-62
2022/03/07 00:15:46;;;;;;;;;;;;;;;-4.03;94.61;102824.53;2064779;28;21926;-62
2022/03/07 00:16:48;;;;;;;;;;;;;;;-4.04;94.54;102822.72;2064017;28;45187;-62
2022/03/07 00:17:49;;;;;;;;;;;;;;;-4.07;93.93;102824.22;2064464;28;44857;-62
2022/03/07 00:18:51;;;;;;;;;;;;;;;-4.11;93.90;102827.41;2063891;28;43073;-62
2022/03/07 00:19:53;;;;;;;;;;;;;;;-4.13;94.38;102827.31;2064113;28;44573;-62
2022/03/07 00:20:55;;;;;;;;;;;;;;;-4.16;93.21;102826.19;2063777;28;46244;-62
2022/03/07 00:21:57;;;;;;;;;;;;;;;-4.22;94.52;102830.25;2064610;28;20121;-61
2022/03/07 00:22:58;;;;;;;;;;;;;;;-4.24;94.22;102830.91;2064067;28;44372;-61
2022/03/07 00:24:00;;;;;;;;;;;;;;;-4.26;94.52;102824.69;2064149;28;34712;-64
2022/03/07 00:25:02;;;;;;;;;;;;;;;-4.28;93.27;102829.81;2063790;28;44541;-62
2022/03/07 00:26:06;;;;;;;;;;;;;;;-4.28;93.56;102829.81;2063781;28;46045;-64
2022/03/07 00:27:08;;;;;;;;;;;;;;;-4.26;94.20;102833.44;2064098;28;43034;-61
2022/03/07 00:28:09;;;;;;;;;;;;;;;-4.27;94.38;102831.63;2064965;28;19926;-64
2022/03/07 00:29:11;;;;;;;;;;;;;;;-4.26;94.77;102825.59;2064868;28;39634;-64
2022/03/07 00:30:15;;;;;;;;;;;;;;;-4.24;94.66;102823.97;2063830;28;44772;-64
2022/03/07 00:31:20;;;;;;;;;;;;;;;-4.21;95.14;102825.91;2063813;28;44293;-63
2022/03/07 00:32:21;;;;;;;;;;;;;;;-4.19;94.04;102829.53;2063611;28;42914;-64
2022/03/07 00:33:26;;;;;;;;;;;;;;;-4.17;94.83;102829.63;2063965;28;45177;-61
2022/03/07 00:34:29;;;;;;;;;;;;;;;-4.16;94.55;102834.03;2072243;28;20827;-61
2022/03/07 00:35:30;;;;;;;;;;;;;;;-4.12;95.16;102833.47;2063206;28;44662;-64
2022/03/07 00:36:32;;;;;;;;;;;;;;;-4.11;94.49;102827.41;2062969;28;46533;-64
2022/03/07 00:37:33;;;;;;;;;;;;;;;-4.10;94.25;102827.53;2064060;28;44186;-63
2022/03/07 00:38:35;;;;;;;;;;;;;;;-4.03;95.23;102828.84;2062964;28;44501;-64
2022/03/07 00:39:36;;;;;;;;;;;;;;;-4.03;95.14;102827.13;2063228;28;45669;-61
2022/03/07 00:40:38;;;;;;;;;;;;;;;-4.03;95.10;102821.91;2063802;28;39616;-61
2022/03/07 00:41:42;;;;;;;;;;;;;;;-4.03;95.17;102826.25;2063926;28;19930;-62
2022/03/07 00:42:44;;;;;;;;;;;;;;;-4.06;95.02;102828.63;2063939;28;44435;-62
2022/03/07 00:43:46;;;;;;;;;;;;;;;-4.07;94.81;102832.09;2065057;28;19914;-63
2022/03/07 00:44:48;;;;;;;;;;;;;;;-4.11;93.81;102825.72;2064605;28;19930;-64
2022/03/07 00:45:50;;;;;;;;;;;;;;;-4.12;95.24;102830.84;2064752;28;33646;-63
2022/03/07 00:46:52;;;;;;;;;;;;;;;-4.14;94.09;102828.13;2063395;28;45795;-63
2022/03/07 00:47:53;;;;;;;;;;;;;;;-4.14;95.08;102824.63;2064348;28;45631;-63
2022/03/07 00:48:55;;;;;;;;;;;;;;;-4.16;94.74;102828.81;2072438;28;19925;-63
2022/03/07 00:49:57;;;;;;;;;;;;;;;-4.19;94.84;102823.41;2063439;28;39863;-63
2022/03/07 00:50:59;;;;;;;;;;;;;;;-4.23;94.65;102825.81;2063456;28;43902;-63
2022/03/07 00:52:00;;;;;;;;;;;;;;;-4.26;94.06;102822.97;2063823;28;45880;-63
2022/03/07 00:53:02;;;;;;;;;;;;;;;-4.29;94.55;102828.00;2072236;28;20806;-63
2022/03/07 00:54:03;;;;;;;;;;;;;;;-4.32;94.70;102826.91;2063789;28;19993;-63
2022/03/07 00:55:05;;;;;;;;;;;;;;;-4.34;94.68;102824.19;2062830;28;44558;-64
2022/03/07 00:56:10;;;;;;;;;;;;;;;-4.34;94.39;102831.09;2064009;28;19926;-63
2022/03/07 00:57:11;;;;;;;;;;;;;;;-4.37;94.31;102825.69;2063313;28;39764;-63
2022/03/07 00:58:15;;;;;;;;;;;;;;;-4.41;93.78;102827.16;2063979;28;20838;-63
2022/03/07 00:59:18;;;;;;;;;;;;;;;-4.43;94.54;102832.28;2072162;28;19925;-64
2022/03/07 01:00:20;;;;;;;;;;;;;;;-4.45;94.35;102830.34;2070997;28;45272;-61
2022/03/07 01:01:22;;;;;;;;;;;;;;;-4.46;94.43;102839.00;2063674;28;43120;-64
2022/03/07 01:02:25;;;;;;;;;;;;;;;-4.49;95.20;102837.06;2063947;28;19952;-63
2022/03/07 01:03:26;;;;;;;;;;;;;;;-4.49;94.24;102836.19;2063393;28;46121;-63
2022/03/07 01:04:29;;;;;;;;;;;;;;;-4.51;94.66;102846.53;2065530;28;20012;-63
2022/03/07 01:05:31;;;;;;;;;;;;;;;-4.53;95.36;102842.91;2064034;28;40629;-63
2022/03/07 01:06:32;;;;;;;;;;;;;;;-4.51;94.02;102843.00;2064177;28;39157;-63
2022/03/07 01:07:34;;;;;;;;;;;;;;;-4.49;95.07;102838.78;2064104;28;43782;-61
2022/03/07 01:08:36;;;;;;;;;;;;;;;-4.50;95.15;102834.38;2064797;28;20068;-64
2022/03/07 01:09:38;;;;;;;;;;;;;;;-4.50;95.63;102843.13;2063570;28;42870;-61
2022/03/07 01:10:40;;;;;;;;;;;;;;;-4.51;95.60;102841.28;2064068;28;44382;-64
2022/03/07 01:11:44;;;;;;;;;;;;;;;-4.52;94.35;102836.88;2064131;28;40761;-63
2022/03/07 01:12:46;;;;;;;;;;;;;;;-4.52;95.67;102836.88;2064151;28;45060;-62
2022/03/07 01:13:53;;;;;;;;;;;;;;;-4.49;94.28;102833.56;2063591;28;20360;-62
2022/03/07 01:14:55;;;;;;;;;;;;;;;-4.48;94.78;102836.28;2064301;28;19937;-62
2022/03/07 01:15:56;;;;;;;;;;;;;;;-4.44;95.09;102834.78;2071472;28;30313;-61
2022/03/07 01:16:58;;;;;;;;;;;;;;;-4.46;95.21;102837.28;2070673;28;45066;-62
2022/03/07 01:18:00;;;;;;;;;;;;;;;-4.42;95.94;102847.16;2071790;28;19918;-61
2022/03/07 01:19:01;;;;;;;;;;;;;;;-4.40;96.01;102839.41;2071071;28;46389;-62
2022/03/07 01:20:06;;;;;;;;;;;;;;;-4.25;96.00;102840.50;2063771;28;20845;-61
2022/03/07 01:21:07;;;;;;;;;;;;;;;-4.26;96.34;102836.03;2062858;28;44318;-62
2022/03/07 01:22:09;;;;;;;;;;;;;;;-4.24;95.55;102834.44;2063450;28;45821;-61
2022/03/07 01:23:10;;;;;;;;;;;;;;;-4.24;96.53;102837.03;2063842;28;20833;-62
2022/03/07 01:24:12;;;;;;;;;;;;;;;-4.22;95.61;102840.69;2062887;28;45070;-62
2022/03/07 01:25:14;;;;;;;;;;;;;;;-4.22;95.13;102840.69;2063813;28;20028;-62
2022/03/07 01:26:15;;;;;;;;;;;;;;;-4.16;96.25;102836.66;2063765;28;45859;-62
2022/03/07 01:27:17;;;;;;;;;;;;;;;-4.14;95.27;102846.44;2062877;28;45386;-62
2022/03/07 01:28:19;;;;;;;;;;;;;;;-4.13;96.51;102844.72;2063227;28;44578;-61
2022/03/07 01:29:21;;;;;;;;;;;;;;;-4.16;94.93;102844.50;2063775;28;19929;-62
2022/03/07 01:30:24;;;;;;;;;;;;;;;-4.14;95.44;102848.16;2063597;28;19926;-62
2022/03/07 01:31:26;;;;;;;;;;;;;;;-4.18;94.81;102844.44;2062689;28;45610;-62
2022/03/07 01:32:30;;;;;;;;;;;;;;;-4.22;95.91;102845.00;2070791;28;19972;-61
2022/03/07 01:33:32;;;;;;;;;;;;;;;-4.27;94.76;102844.72;2071793;28;20013;-62
2022/03/07 01:34:34;;;;;;;;;;;;;;;-4.30;94.36;102841.88;2063499;28;45896;-61
2022/03/07 01:35:36;;;;;;;;;;;;;;;-4.35;94.74;102845.88;2063345;28;44578;-62
2022/03/07 01:36:37;;;;;;;;;;;;;;;-4.39;95.05;102845.59;2063076;28;44407;-62
2022/03/07 01:37:39;;;;;;;;;;;;;;;-4.44;94.70;102846.16;2064234;28;29209;-62
2022/03/07 01:38:40;;;;;;;;;;;;;;;-4.45;94.89;102843.44;2063772;28;42826;-62
2022/03/07 01:39:42;;;;;;;;;;;;;;;-4.45;94.79;102852.19;2063629;28;44678;-62
2022/03/07 01:40:45;;;;;;;;;;;;;;;-4.51;94.69;102843.91;2064767;28;20001;-62
2022/03/07 01:41:47;;;;;;;;;;;;;;;-4.56;94.80;102844.41;2064576;28;20673;-62
2022/03/07 01:42:49;;;;;;;;;;;;;;;-4.60;95.36;102844.19;2063054;28;33718;-62
2022/03/07 01:43:50;;;;;;;;;;;;;;;-4.65;95.13;102842.97;2063947;28;19930;-62
2022/03/07 01:44:52;;;;;;;;;;;;;;;-4.68;93.93;102842.75;2062471;28;44691;-64
2022/03/07 01:45:54;;;;;;;;;;;;;;;-4.72;93.99;102840.75;2054784;28;44671;-62
2022/03/07 01:46:57;;;;;;;;;;;;;;;-4.75;95.24;102839.63;2062726;28;45497;-62
2022/03/07 01:48:01;;;;;;;;;;;;;;;-4.77;94.21;102843.78;2063346;28;20059;-62
2022/03/07 01:49:09;;;;;;;;;;;;;;;-4.77;95.67;102835.97;2064388;28;20071;-64
2022/03/07 01:50:13;;;;;;;;;;;;;;;-4.77;94.69;102843.78;2047492;28;33162;-64
2022/03/07 01:51:17;;;;;;;;;;;;;;;-4.79;95.59;102843.72;2056875;28;20665;-63
2022/03/07 01:52:20;;;;;;;;;;;;;;;-4.81;94.28;102846.22;2063615;28;19976;-62
2022/03/07 01:53:22;;;;;;;;;;;;;;;-4.82;95.78;102844.41;2055460;28;20016;-62
2022/03/07 01:54:24;;;;;;;;;;;;;;;-4.83;95.37;102836.44;2048028;28;19930;-61
2022/03/07 01:55:28;;;;;;;;;;;;;;;-4.84;94.49;102840.78;2063308;28;19918;-64
2022/03/07 01:56:35;;;;;;;;;;;;;;;-4.84;94.85;102837.25;2056441;28;19926;-61
2022/03/07 01:57:39;;;;;;;;;;;;;;;-4.88;95.70;102843.97;2063376;28;29326;-64
2022/03/07 01:58:42;;;;;;;;;;;;;;;-4.90;95.43;102840.34;2055733;28;19927;-62
2022/03/07 01:59:46;;;;;;;;;;;;;;;-4.91;94.45;102842.84;2055182;28;36726;-62
2022/03/07 02:00:47;;;;;;;;;;;;;;;-4.93;95.76;102840.13;2063265;28;24809;-62
2022/03/07 02:01:50;;;;;;;;;;;;;;;-4.92;94.56;102839.31;2055479;28;19934;-62
2022/03/07 02:02:53;;;;;;;;;;;;;;;-4.91;95.06;102848.06;2063643;28;20893;-62
2022/03/07 02:04:04;;;;;;;;;;;;;;;-4.89;95.28;102838.63;2063121;28;20850;-61
2022/03/07 02:05:08;;;;;;;;;;;;;;;-4.88;95.84;102843.97;2063862;28;20734;-61
2022/03/07 02:06:10;;;;;;;;;;;;;;;-4.88;95.62;102848.28;2063695;28;20036;-62
2022/03/07 02:07:12;;;;;;;;;;;;;;;-4.89;94.87;102851.69;2063513;28;20060;-62
2022/03/07 02:08:14;;;;;;;;;;;;;;;-4.91;95.70;102848.06;2071942;28;19925;-62
2022/03/07 02:09:33;;;;;;;;;;;;;;;-4.93;95.26;102842.75;2071657;28;20008;-61
2022/03/07 02:10:36;;;;;;;;;;;;;;;-4.95;95.74;102846.03;2063272;28;19933;-62
2022/03/07 02:11:42;;;;;;;;;;;;;;;-4.97;94.60;102839.78;2056687;28;19997;-62
2022/03/07 02:12:46;;;;;;;;;;;;;;;-5.00;94.66;102837.88;2063478;28;19953;-62
2022/03/07 02:13:48;;;;;;;;;;;;;;;-5.01;95.19;102846.50;2071627;28;19925;-62
2022/03/07 02:14:50;;;;;;;;;;;;;;;-5.02;96.02;102834.25;2063405;28;19925;-61
2022/03/07 02:15:53;;;;;;;;;;;;;;;-5.03;95.61;102838.53;2063360;28;20712;-62
2022/03/07 02:16:56;;;;;;;;;;;;;;;-5.04;95.08;102844.59;2063420;28;19978;-62
2022/03/07 02:17:58;;;;;;;;;;;;;;;-5.01;95.08;102842.19;2062549;28;44398;-62
2022/03/07 02:18:59;;;;;;;;;;;;;;;-4.96;95.78;102842.50;2071572;28;19929;-61
2022/03/07 02:20:05;;;;;;;;;;;;;;;-4.95;96.38;102844.34;2071391;28;19929;-62
2022/03/07 02:21:14;;;;;;;;;;;;;;;-4.97;96.20;102843.31;2062733;28;45409;-61
2022/03/07 02:22:54;;;;;;;;;;;;;;;-5.01;95.03;102844.81;2055455;28;20752;-62
2022/03/07 02:23:56;;;;;;;;;;;;;;;-5.01;95.17;102846.50;2047073;28;19984;-62
2022/03/07 02:24:57;;;;;;;;;;;;;;;-5.02;95.35;102844.69;2038759;29;35425;-62
2022/03/07 02:25:59;;;;;;;;;;;;;;;-5.02;96.46;102843.00;2047020;28;30655;-62
2022/03/07 02:27:06;;;;;;;;;;;;;;;-5.02;95.21;102840.38;2046979;28;20828;-62
2022/03/07 02:28:10;;;;;;;;;;;;;;;-5.00;95.95;102840.50;2041508;28;19927;-62
2022/03/07 02:29:15;;;;;;;;;;;;;;;-4.96;95.40;102839.00;2055403;28;19933;-62
2022/03/07 02:30:17;;;;;;;;;;;;;;;-4.91;96.33;102835.00;2055920;28;20060;-62
2022/03/07 02:31:20;;;;;;;;;;;;;;;-4.90;97.06;102839.41;2055608;28;19935;-62
2022/03/07 02:32:24;;;;;;;;;;;;;;;-4.93;95.91;102839.22;2055525;28;19959;-62
2022/03/07 02:33:27;;;;;;;;;;;;;;;-4.97;96.41;102839.78;2055132;28;20736;-61
2022/03/07 02:34:28;;;;;;;;;;;;;;;-5.00;96.09;102833.56;2055298;28;20869;-62
2022/03/07 02:35:30;;;;;;;;;;;;;;;-5.03;96.28;102841.16;2062510;28;44711;-62
2022/03/07 02:36:32;;;;;;;;;;;;;;;-5.07;95.47;102836.53;2063378;28;19930;-62
2022/03/07 02:37:36;;;;;;;;;;;;;;;-5.09;95.54;102832.00;2055533;28;19970;-63
2022/03/07 02:38:38;;;;;;;;;;;;;;;-5.10;95.63;102838.91;2062569;28;45005;-62
2022/03/07 02:39:40;;;;;;;;;;;;;;;-5.11;96.58;102834.50;2071218;28;19956;-62
2022/03/07 02:41:03;;;;;;;;;;;;;;;-5.10;95.50;102833.69;2063048;28;20001;-63
2022/03/07 02:42:05;;;;;;;;;;;;;;;-5.12;95.19;102835.28;2055397;28;20082;-62
2022/03/07 02:43:07;;;;;;;;;;;;;;;-5.11;95.86;102839.72;2055579;28;19930;-63
2022/03/07 02:44:09;;;;;;;;;;;;;;;-5.12;95.81;102840.50;2063550;28;19926;-62
2022/03/07 02:45:11;;;;;;;;;;;;;;;-5.15;96.04;102827.25;2063481;28;21766;-62
2022/03/07 02:46:13;;;;;;;;;;;;;;;-5.16;96.38;102830.66;2063051;28;19926;-62
2022/03/07 02:47:17;;;;;;;;;;;;;;;-5.16;95.92;102833.25;2062674;28;44510;-62
2022/03/07 02:48:19;;;;;;;;;;;;;;;-5.18;96.13;102832.25;2062672;28;45701;-62
2022/03/07 02:49:20;;;;;;;;;;;;;;;-5.21;96.20;102835.53;2070842;28;38344;-62
2022/03/07 02:50:22;;;;;;;;;;;;;;;-5.21;96.28;102838.13;2071650;28;19929;-63
2022/03/07 02:51:23;;;;;;;;;;;;;;;-5.21;96.17;102843.38;2062355;28;46611;-62
2022/03/07 02:52:25;;;;;;;;;;;;;;;-5.21;95.83;102840.75;2054768;28;32398;-63
2022/03/07 02:53:26;;;;;;;;;;;;;;;-5.19;95.93;102833.03;2054542;28;44508;-63
2022/03/07 02:54:28;;;;;;;;;;;;;;;-5.21;96.20;102832.91;2062669;28;44963;-63
2022/03/07 02:55:31;;;;;;;;;;;;;;;-5.24;96.46;102837.00;2063250;28;45646;-62
2022/03/07 02:56:33;;;;;;;;;;;;;;;-5.26;95.69;102836.00;2062917;28;44642;-63
2022/03/07 02:57:34;;;;;;;;;;;;;;;-5.27;96.63;102835.09;2063944;28;43236;-63
2022/03/07 02:58:36;;;;;;;;;;;;;;;-5.28;96.13;102840.22;2064146;28;20679;-63
2022/03/07 02:59:38;;;;;;;;;;;;;;;-5.30;96.58;102832.25;2063363;28;44929;-61
2022/03/07 03:00:39;;;;;;;;;;;;;;;-5.29;96.06;102834.09;2063761;28;29771;-62
2022/03/07 03:01:43;;;;;;;;;;;;;;;-5.28;96.28;102829.75;2063306;28;44649;-62
2022/03/07 03:02:45;;;;;;;;;;;;;;;-5.33;96.62;102829.41;2064058;28;19926;-62
2022/03/07 03:03:46;;;;;;;;;;;;;;;-5.33;96.66;102823.31;2062365;28;45629;-62
2022/03/07 03:04:48;;;;;;;;;;;;;;;-5.37;96.81;102824.78;2062618;28;46697;-62
2022/03/07 03:05:54;;;;;;;;;;;;;;;-5.38;96.14;102823.00;2063451;28;36906;-62
2022/03/07 03:06:55;;;;;;;;;;;;;;;-5.37;95.70;102825.69;2063363;28;45819;-62
2022/03/07 03:07:57;;;;;;;;;;;;;;;-5.38;96.15;102818.66;2063383;28;44872;-62
2022/03/07 03:08:59;;;;;;;;;;;;;;;-5.38;95.69;102818.66;2062635;28;44259;-61
2022/03/07 03:10:00;;;;;;;;;;;;;;;-5.37;96.09;102822.16;2064250;28;19929;-62
2022/03/07 03:11:03;;;;;;;;;;;;;;;-5.40;96.62;102820.25;2064201;28;19930;-62
2022/03/07 03:12:05;;;;;;;;;;;;;;;-5.41;95.58;102817.53;2063118;28;44682;-62
2022/03/07 03:13:06;;;;;;;;;;;;;;;-5.44;96.07;102819.91;2062925;28;45780;-62
2022/03/07 03:14:08;;;;;;;;;;;;;;;-5.44;95.81;102817.31;2063500;28;45248;-61
2022/03/07 03:15:10;;;;;;;;;;;;;;;-5.46;96.77;102819.78;2063280;28;44316;-62
2022/03/07 03:16:11;;;;;;;;;;;;;;;-5.45;95.82;102816.41;2063087;28;44184;-62
2022/03/07 03:17:13;;;;;;;;;;;;;;;-5.45;96.68;102810.28;2064141;28;20793;-62
2022/03/07 03:18:16;;;;;;;;;;;;;;;-5.44;95.83;102817.31;2062948;28;44555;-62
2022/03/07 03:19:18;;;;;;;;;;;;;;;-5.45;95.79;102813.78;2062191;28;43783;-62
2022/03/07 03:20:19;;;;;;;;;;;;;;;-5.46;96.83;102814.59;2062148;28;45445;-62
2022/03/07 03:21:21;;;;;;;;;;;;;;;-5.45;96.50;102816.41;2062822;28;44922;-62
2022/03/07 03:22:22;;;;;;;;;;;;;;;-5.42;96.87;102815.72;2063046;28;44065;-62
2022/03/07 03:23:24;;;;;;;;;;;;;;;-5.40;96.41;102815.03;2062701;28;44899;-62
2022/03/07 03:24:28;;;;;;;;;;;;;;;-5.35;96.23;102814.47;2063345;28;42905;-62
2022/03/07 03:25:29;;;;;;;;;;;;;;;-5.34;97.04;102811.97;2062237;28;44466;-62
2022/03/07 03:26:31;;;;;;;;;;;;;;;-5.33;96.39;102799.81;2062728;28;46256;-62
2022/03/07 03:27:34;;;;;;;;;;;;;;;-5.33;96.35;102802.41;2062773;28;44116;-62
2022/03/07 03:28:35;;;;;;;;;;;;;;;-5.30;96.19;102800.03;2062639;28;45088;-62
2022/03/07 03:29:37;;;;;;;;;;;;;;;-5.31;96.98;102803.44;2063916;28;21268;-62
2022/03/07 03:30:38;;;;;;;;;;;;;;;-5.28;96.48;102804.56;2063909;28;19930;-62
2022/03/07 03:31:40;;;;;;;;;;;;;;;-5.29;96.45;102807.97;2063270;28;36870;-62
2022/03/07 03:32:42;;;;;;;;;;;;;;;-5.28;96.32;102801.03;2062777;28;44422;-62
2022/03/07 03:33:43;;;;;;;;;;;;;;;-5.28;97.37;102801.03;2062838;28;45346;-62
2022/03/07 03:34:45;;;;;;;;;;;;;;;-5.28;96.34;102798.44;2071640;28;19937;-62
2022/03/07 03:35:47;;;;;;;;;;;;;;;-5.30;96.93;102795.72;2070533;28;45235;-62
2022/03/07 03:36:49;;;;;;;;;;;;;;;-5.31;96.89;102790.38;2062869;28;44412;-62
2022/03/07 03:37:51;;;;;;;;;;;;;;;-5.34;96.16;102796.28;2063236;28;44236;-62
2022/03/07 03:38:53;;;;;;;;;;;;;;;-5.35;97.19;102785.75;2063317;28;45016;-62
2022/03/07 03:39:54;;;;;;;;;;;;;;;-5.35;96.09;102791.84;2062558;28;42276;-61
2022/03/07 03:40:56;;;;;;;;;;;;;;;-5.38;96.77;102797.78;2063384;28;43019;-62
2022/03/07 03:41:57;;;;;;;;;;;;;;;-5.40;96.10;102790.63;2062673;28;46260;-62
2022/03/07 03:42:59;;;;;;;;;;;;;;;-5.41;96.99;102797.56;2064067;28;20889;-61
2022/03/07 03:44:01;;;;;;;;;;;;;;;-5.43;95.81;102796.53;2062724;28;44065;-61
2022/03/07 03:45:05;;;;;;;;;;;;;;;-5.42;96.21;102802.66;2059357;28;46375;-62
2022/03/07 03:46:07;;;;;;;;;;;;;;;-5.45;96.18;102800.75;2061134;28;46865;-62
2022/03/07 03:47:08;;;;;;;;;;;;;;;-5.46;96.41;102800.63;2061331;28;45913;-62
2022/03/07 03:48:10;;;;;;;;;;;;;;;-5.49;96.79;102801.34;2063139;28;37055;-62
2022/03/07 03:49:11;;;;;;;;;;;;;;;-5.49;96.98;102803.00;2062889;28;44586;-62
2022/03/07 03:50:16;;;;;;;;;;;;;;;-5.49;95.98;102800.41;2062554;28;44975;-62
2022/03/07 03:51:17;;;;;;;;;;;;;;;-5.49;97.20;102801.34;2062903;28;45718;-62
2022/03/07 03:52:19;;;;;;;;;;;;;;;-5.50;96.80;102802.13;2063747;28;19930;-62
2022/03/07 03:53:21;;;;;;;;;;;;;;;-5.53;96.41;102807.09;2061945;28;38086;-62
2022/03/07 03:54:23;;;;;;;;;;;;;;;-5.53;97.31;102801.88;2061671;28;44566;-62
2022/03/07 03:55:27;;;;;;;;;;;;;;;-5.54;96.32;102804.38;2064264;28;19927;-62
2022/03/07 03:56:28;;;;;;;;;;;;;;;-5.53;96.30;102801.88;2064013;28;44202;-61
2022/03/07 03:57:30;;;;;;;;;;;;;;;-5.50;96.14;102807.34;2064271;28;44054;-62
2022/03/07 03:58:31;;;;;;;;;;;;;;;-5.48;97.30;102808.34;2065205;28;19988;-62
2022/03/07 03:59:34;;;;;;;;;;;;;;;-5.47;96.93;102810.19;2064352;28;44040;-62
2022/03/07 04:00:38;;;;;;;;;;;;;;;-5.46;97.40;102818.91;2063866;28;46154;-62
2022/03/07 04:01:44;;;;;;;;;;;;;;;-5.44;96.94;102817.31;2064430;28;38248;-62
2022/03/07 04:02:46;;;;;;;;;;;;;;;-5.43;97.06;102817.41;2064266;28;44878;-62
2022/03/07 04:03:48;;;;;;;;;;;;;;;-5.43;96.67;102809.59;2071984;28;43827;-62
2022/03/07 04:04:49;;;;;;;;;;;;;;;-5.40;97.37;102820.25;2071665;28;45630;-62
2022/03/07 04:05:51;;;;;;;;;;;;;;;-5.39;96.69;102821.16;2064334;28;46584;-62
2022/03/07 04:06:52;;;;;;;;;;;;;;;-5.39;97.35;102824.66;2063562;28;44078;-62
2022/03/07 04:07:58;;;;;;;;;;;;;;;-5.40;96.65;102824.56;2064693;28;23604;-62
2022/03/07 04:09:02;;;;;;;;;;;;;;;-5.41;96.78;102826.25;2064998;28;22844;-63
2022/03/07 04:10:05;;;;;;;;;;;;;;;-5.40;96.82;102827.16;2065257;28;19941;-62
2022/03/07 04:11:07;;;;;;;;;;;;;;;-5.40;97.19;102828.09;2064406;28;44326;-63
2022/03/07 04:12:09;;;;;;;;;;;;;;;-5.41;97.53;102823.66;2064288;28;41716;-63
2022/03/07 04:13:10;;;;;;;;;;;;;;;-5.39;96.60;102823.78;2064112;28;45227;-62
2022/03/07 04:14:14;;;;;;;;;;;;;;;-5.39;97.41;102818.56;2065116;28;19965;-62
2022/03/07 04:15:16;;;;;;;;;;;;;;;-5.41;97.50;102827.97;2062874;28;44030;-62
2022/03/07 04:16:18;;;;;;;;;;;;;;;-5.42;96.44;102826.16;2057124;28;20712;-62
2022/03/07 04:17:20;;;;;;;;;;;;;;;-5.45;97.21;102823.34;2056040;28;42279;-63
2022/03/07 04:18:24;;;;;;;;;;;;;;;-5.48;97.10;102829.22;2056165;28;43646;-62
2022/03/07 04:19:25;;;;;;;;;;;;;;;-5.48;96.77;102834.44;2055995;28;46101;-62
2022/03/07 04:20:27;;;;;;;;;;;;;;;-5.39;96.53;102832.50;2056192;28;43900;-62
2022/03/07 04:21:29;;;;;;;;;;;;;;;-5.41;96.95;102841.94;2056912;28;19934;-62
2022/03/07 04:22:30;;;;;;;;;;;;;;;-5.44;96.56;102836.47;2055892;28;42684;-63
2022/03/07 04:23:32;;;;;;;;;;;;;;;-5.44;97.08;102833.88;2056180;28;45342;-63
2022/03/07 04:24:35;;;;;;;;;;;;;;;-5.45;97.48;102839.00;2055797;28;44431;-62
2022/03/07 04:25:36;;;;;;;;;;;;;;;-5.46;97.03;102837.16;2056467;28;45089;-62
2022/03/07 04:26:40;;;;;;;;;;;;;;;-5.47;97.06;102836.28;2056255;28;37417;-62
2022/03/07 04:27:42;;;;;;;;;;;;;;;-5.47;96.62;102843.16;2056526;28;45752;-61
2022/03/07 04:28:43;;;;;;;;;;;;;;;-5.50;97.35;102836.03;2056337;28;45400;-62
2022/03/07 04:29:45;;;;;;;;;;;;;;;-5.51;96.71;102844.66;2055720;28;46025;-63
2022/03/07 04:30:47;;;;;;;;;;;;;;;-5.54;96.47;102836.63;2055988;28;41846;-62
2022/03/07 04:31:48;;;;;;;;;;;;;;;-5.53;97.30;102842.75;2056236;28;29053;-62
2022/03/07 04:32:50;;;;;;;;;;;;;;;-5.57;97.18;102836.38;2056234;28;44484;-62
2022/03/07 04:33:52;;;;;;;;;;;;;;;-5.58;97.33;102839.78;2055893;28;45567;-62
2022/03/07 04:34:53;;;;;;;;;;;;;;;-5.61;96.50;102834.34;2055780;28;38434;-62
2022/03/07 04:35:55;;;;;;;;;;;;;;;-5.63;96.58;102842.06;2056071;28;41828;-62
2022/03/07 04:36:57;;;;;;;;;;;;;;;-5.61;97.10;102845.69;2056062;28;45724;-62
2022/03/07 04:38:00;;;;;;;;;;;;;;;-5.64;97.42;102837.63;2055852;28;37523;-63
2022/03/07 04:39:06;;;;;;;;;;;;;;;-5.65;97.30;102838.44;2057257;28;20001;-62
2022/03/07 04:40:13;;;;;;;;;;;;;;;-5.65;97.17;102837.50;2063466;28;44912;-62
2022/03/07 04:41:14;;;;;;;;;;;;;;;-5.64;96.49;102841.94;2063951;28;44364;-62
2022/03/07 04:42:16;;;;;;;;;;;;;;;-5.63;97.10;102836.84;2063984;28;45625;-62
2022/03/07 04:43:17;;;;;;;;;;;;;;;-5.64;96.52;102848.06;2064215;28;45767;-62
2022/03/07 04:44:19;;;;;;;;;;;;;;;-5.62;97.30;102845.56;2063671;28;44065;-62
2022/03/07 04:45:20;;;;;;;;;;;;;;;-5.62;96.67;102843.88;2063814;28;46838;-62
2022/03/07 04:46:22;;;;;;;;;;;;;;;-5.60;97.09;102849.19;2063556;28;42850;-62
2022/03/07 04:47:24;;;;;;;;;;;;;;;-5.59;97.31;102851.03;2063383;28;45409;-62
2022/03/07 04:48:25;;;;;;;;;;;;;;;-5.58;97.62;102850.22;2063674;28;40653;-62
2022/03/07 04:49:27;;;;;;;;;;;;;;;-5.52;97.40;102845.47;2064187;28;42269;-61
2022/03/07 04:50:29;;;;;;;;;;;;;;;-5.46;96.92;102845.91;2064007;28;45535;-60
2022/03/07 04:51:30;;;;;;;;;;;;;;;-5.44;98.05;102846.00;2063756;28;43887;-61
2022/03/07 04:52:32;;;;;;;;;;;;;;;-5.43;98.20;102845.22;2063088;28;44008;-61
2022/03/07 04:53:34;;;;;;;;;;;;;;;-5.43;96.98;102853.97;2064408;28;46497;-62
2022/03/07 04:54:35;;;;;;;;;;;;;;;-5.45;97.65;102850.34;2064183;28;41114;-62
2022/03/07 04:55:37;;;;;;;;;;;;;;;-5.47;97.49;102851.94;2063951;28;45728;-62
2022/03/07 04:56:43;;;;;;;;;;;;;;;-5.48;97.33;102847.50;2063590;28;45954;-62
2022/03/07 04:57:45;;;;;;;;;;;;;;;-5.46;98.12;102850.22;2063984;28;44224;-62
2022/03/07 04:58:46;;;;;;;;;;;;;;;-5.45;97.11;102844.22;2063826;28;44923;-61
2022/03/07 04:59:50;;;;;;;;;;;;;;;-5.42;97.63;102845.34;2065057;28;19965;-62
2022/03/07 05:00:54;;;;;;;;;;;;;;;-5.40;97.85;102853.25;2063118;28;43257;-62
2022/03/07 05:01:55;;;;;;;;;;;;;;;-5.36;96.89;102855.31;2063721;28;45884;-62
2022/03/07 05:02:57;;;;;;;;;;;;;;;-5.35;97.14;102849.28;2063692;28;44224;-62
2022/03/07 05:03:59;;;;;;;;;;;;;;;-5.34;96.85;102851.13;2063556;28;45083;-62
2022/03/07 05:05:00;;;;;;;;;;;;;;;-5.33;97.68;102852.91;2064104;28;37450;-62
2022/03/07 05:06:03;;;;;;;;;;;;;;;-5.31;97.45;102859.19;2064002;28;44133;-62
2022/03/07 05:07:04;;;;;;;;;;;;;;;-5.29;96.99;102859.25;2064070;28;19933;-62
2022/03/07 05:08:07;;;;;;;;;;;;;;;-5.26;97.22;102860.44;2064888;28;19985;-62
2022/03/07 05:09:08;;;;;;;;;;;;;;;-5.23;97.02;102854.50;2063038;28;46359;-64
2022/03/07 05:10:10;;;;;;;;;;;;;;;-5.25;98.43;102854.38;2048140;28;39451;-62
2022/03/07 05:11:11;;;;;;;;;;;;;;;-5.23;97.01;102850.19;2047440;28;45374;-62
2022/03/07 05:12:13;;;;;;;;;;;;;;;-5.21;97.98;102853.81;2047428;28;45692;-62
2022/03/07 05:13:14;;;;;;;;;;;;;;;-5.18;97.33;102859.25;2047107;28;27118;-63
2022/03/07 05:14:18;;;;;;;;;;;;;;;-5.15;98.13;102855.97;2047067;28;44172;-62
2022/03/07 05:15:19;;;;;;;;;;;;;;;-5.11;97.22;102855.41;2046312;28;45886;-62
2022/03/07 05:16:21;;;;;;;;;;;;;;;-5.09;97.17;102851.19;2047675;28;43864;-61
2022/03/07 05:17:22;;;;;;;;;;;;;;;-5.08;97.79;102850.41;2047947;28;19931;-62
2022/03/07 05:18:24;;;;;;;;;;;;;;;-5.07;98.11;102846.06;2047814;28;41616;-62
2022/03/07 05:19:25;;;;;;;;;;;;;;;-5.03;98.70;102849.00;2047108;28;45429;-62
2022/03/07 05:20:27;;;;;;;;;;;;;;;-5.00;97.93;102845.72;2047205;28;44576;-62
2022/03/07 05:21:48;;;;;;;;;;;;;;;-4.92;98.32;102848.84;2048463;28;19919;-62